Dunlap Lake, Illinois
Current Conditions -  °F | °C
As of 10:50 AM on Wednesday 26 Nov 2014 (Local Time) from KALN Reporting Station
Overcast Overcast  
Wind Chill: 23°   Ceiling: 8000
Heat Index: 32°   Visibility: 8mi
Dew Point: 30°   Wind: 12mph
Humidity: 93%   Direction: 140°SE
Pressure: 30.04"   Gusts: NA
Location:  38.8031°N, 89.9742°W
Report Text: KALN 261650Z 14010KT 8SM OVC080 00/M01 A3004
Loading
Personal Weather Stations






























Interactive Weather Map New forecast layout! Learn more

10-Day Weather Forecast

Advertisements
Track Severe Weather on mobile